createdAt,value
2018-06-02T00:00:46.116Z,99.90
2018-06-02T00:03:12.963Z,99.90
2018-06-02T00:05:39.917Z,99.90
2018-06-02T00:08:06.867Z,99.90
2018-06-02T00:10:33.714Z,99.90
2018-06-02T00:13:00.563Z,99.90
2018-06-02T00:15:27.413Z,99.90
2018-06-02T00:17:54.364Z,99.90
2018-06-02T00:20:21.316Z,99.90
2018-06-02T00:22:48.162Z,99.90
2018-06-02T00:25:15.116Z,99.90
2018-06-02T00:27:42.063Z,99.90
2018-06-02T00:30:08.810Z,99.90
2018-06-02T00:32:35.557Z,99.90
2018-06-02T00:35:02.408Z,99.90
2018-06-02T00:37:29.357Z,99.90
2018-06-02T00:39:56.307Z,99.90
2018-06-02T00:42:23.166Z,99.90
2018-06-02T00:44:50.112Z,99.90
2018-06-02T00:47:17.067Z,99.90
2018-06-02T00:49:44.014Z,99.90
2018-06-02T00:52:10.961Z,99.90
2018-06-02T00:55:01.754Z,99.90
2018-06-02T00:57:28.607Z,99.90
2018-06-02T00:59:55.555Z,99.90
2018-06-02T01:02:22.412Z,99.90
2018-06-02T01:04:49.357Z,99.90
2018-06-02T01:07:16.716Z,99.90
2018-06-02T01:09:43.668Z,99.90
2018-06-02T01:12:10.616Z,99.90
2018-06-02T01:14:37.567Z,99.90
2018-06-02T01:17:04.521Z,99.90
2018-06-02T01:19:31.374Z,99.90
2018-06-02T01:21:58.317Z,99.90
2018-06-02T01:24:25.579Z,99.90
2018-06-02T01:26:52.530Z,99.90
2018-06-02T01:29:19.377Z,99.90
2018-06-02T01:31:46.223Z,99.90
2018-06-02T01:34:13.177Z,99.90
2018-06-02T01:36:40.027Z,99.90
2018-06-02T01:39:06.876Z,99.90
2018-06-02T01:41:34.019Z,99.90
2018-06-02T01:44:00.880Z,99.90
2018-06-02T01:46:27.728Z,99.90
2018-06-02T01:48:54.574Z,99.90
2018-06-02T01:51:21.425Z,99.90
2018-06-02T01:53:48.375Z,99.90
2018-06-02T01:56:15.325Z,99.90
2018-06-02T01:58:42.278Z,99.90
2018-06-02T02:01:09.126Z,99.90
2018-06-02T02:03:36.075Z,99.90
2018-06-02T02:06:02.924Z,99.90
2018-06-02T02:08:29.878Z,99.90
2018-06-02T02:10:56.828Z,99.90
2018-06-02T02:13:23.777Z,99.90
2018-06-02T02:15:51.243Z,99.90
2018-06-02T02:18:17.986Z,99.90
2018-06-02T02:20:44.939Z,99.90
2018-06-02T02:23:11.889Z,99.90
2018-06-02T02:25:38.941Z,99.90
2018-06-02T02:28:05.789Z,99.90
2018-06-02T02:30:32.536Z,99.90
2018-06-02T02:32:59.386Z,99.90
2018-06-02T02:35:26.132Z,99.90
2018-06-02T02:37:52.981Z,99.90
2018-06-02T02:40:19.829Z,99.90
2018-06-02T02:42:46.679Z,99.90
2018-06-02T02:45:13.540Z,99.90
2018-06-02T02:47:40.375Z,99.90
2018-06-02T02:50:07.328Z,99.90
2018-06-02T02:52:34.277Z,99.90
2018-06-02T02:55:01.232Z,99.90
2018-06-02T02:57:29.003Z,99.90
2018-06-02T02:59:55.845Z,99.90
2018-06-02T03:02:22.797Z,99.90
2018-06-02T03:04:49.646Z,99.90
2018-06-02T03:07:16.596Z,99.90
2018-06-02T03:09:43.444Z,99.90
2018-06-02T03:12:10.601Z,99.90
2018-06-02T03:14:37.554Z,99.90
2018-06-02T03:17:04.298Z,99.90
2018-06-02T03:19:31.147Z,99.90
2018-06-02T03:21:58.102Z,99.90
2018-06-02T03:24:25.051Z,99.90
2018-06-02T03:26:52.003Z,99.90
2018-06-02T03:29:18.848Z,99.90
2018-06-02T03:31:45.810Z,99.90
2018-06-02T03:34:12.650Z,99.90
2018-06-02T03:36:39.600Z,99.90
2018-06-02T03:39:06.451Z,99.90
2018-06-02T03:41:33.401Z,99.90
2018-06-02T03:44:00.350Z,99.90
2018-06-02T03:46:27.197Z,99.90
2018-06-02T03:48:54.046Z,99.90
2018-06-02T03:51:20.997Z,99.90
2018-06-02T03:53:47.864Z,99.90
2018-06-02T03:56:14.694Z,99.90
2018-06-02T03:58:42.363Z,99.90
2018-06-02T04:01:09.316Z,99.90
2018-06-02T04:03:36.266Z,99.90
2018-06-02T04:06:03.112Z,99.90
2018-06-02T04:08:30.065Z,99.90
2018-06-02T04:10:57.021Z,99.90
2018-06-02T04:13:23.863Z,99.90
2018-06-02T04:15:50.720Z,99.90
2018-06-02T04:18:17.663Z,99.90
2018-06-02T04:20:44.614Z,99.90
2018-06-02T04:23:11.464Z,99.90
2018-06-02T04:25:38.414Z,99.90
2018-06-02T04:28:05.365Z,99.90
2018-06-02T04:30:32.215Z,92.80
2018-06-02T04:32:59.061Z,80.60
2018-06-02T04:35:25.911Z,69.80
2018-06-02T04:37:52.863Z,61.60
2018-06-02T04:40:20.533Z,57.30
2018-06-02T04:42:47.479Z,53.50
2018-06-02T04:45:14.431Z,51.20
2018-06-02T04:47:41.383Z,49.50
2018-06-02T04:50:08.333Z,48.10
2018-06-02T04:52:35.286Z,45.90
2018-06-02T04:55:02.235Z,44.70
2018-06-02T04:57:29.085Z,43.50
2018-06-02T04:59:56.858Z,41.50
2018-06-02T05:02:23.704Z,41.50
2018-06-02T05:04:50.652Z,40.30
2018-06-02T05:07:17.503Z,39.90
2018-06-02T05:09:44.864Z,39.60
2018-06-02T05:12:11.816Z,40.40
2018-06-02T05:14:38.662Z,40.40
2018-06-02T05:17:05.615Z,40.80
2018-06-02T05:19:32.361Z,39.40
2018-06-02T05:21:59.214Z,38.90
2018-06-02T05:24:26.163Z,38.60
2018-06-02T05:26:53.111Z,39.20
2018-06-02T05:29:20.063Z,37.40
2018-06-02T05:31:46.909Z,38.40
2018-06-02T05:34:13.656Z,38.60
2018-06-02T05:36:40.608Z,37.90
2018-06-02T05:39:07.457Z,38.10
2018-06-02T05:41:34.412Z,36.50
2018-06-02T05:44:01.360Z,37.60
2018-06-02T05:46:28.207Z,36.80
2018-06-02T05:48:55.159Z,37.70
2018-06-02T05:51:22.212Z,37.70
2018-06-02T05:53:49.163Z,38.70
2018-06-02T05:56:16.014Z,39.30
2018-06-02T05:58:42.859Z,38.60
2018-06-02T06:01:09.911Z,39.10
2018-06-02T06:03:36.747Z,38.70
2018-06-02T06:06:03.609Z,39.10
2018-06-02T06:08:30.458Z,39.40
2018-06-02T06:10:57.410Z,38.70
2018-06-02T06:13:24.465Z,37.80
2018-06-02T06:15:52.129Z,36.10
2018-06-02T06:18:19.082Z,36.00
2018-06-02T06:20:46.032Z,38.20
2018-06-02T06:23:12.985Z,41.00
2018-06-02T06:25:40.855Z,40.40
2018-06-02T06:28:07.600Z,40.40
2018-06-02T06:30:34.347Z,40.60
2018-06-02T06:33:01.268Z,38.20
2018-06-02T06:35:28.146Z,39.20
2018-06-02T06:37:56.018Z,40.40
2018-06-02T06:40:22.764Z,40.40
2018-06-02T06:42:49.721Z,39.10
2018-06-02T06:45:16.564Z,39.40
2018-06-02T06:47:43.519Z,38.80
2018-06-02T06:50:11.595Z,39.50
2018-06-02T06:52:38.362Z,38.80
2018-06-02T06:55:06.111Z,38.90
2018-06-02T06:57:34.594Z,38.60
2018-06-02T07:00:01.545Z,38.50
2018-06-02T07:02:28.748Z,38.30
2018-06-02T07:04:56.987Z,37.10
2018-06-02T07:07:24.652Z,35.70
2018-06-02T07:09:51.499Z,35.70
2018-06-02T07:12:18.451Z,36.70
2018-06-02T07:14:45.403Z,35.70
2018-06-02T07:17:12.353Z,36.10
2018-06-02T07:19:39.100Z,34.90
2018-06-02T07:22:05.946Z,34.70
2018-06-02T07:24:32.999Z,35.30
2018-06-02T07:26:59.949Z,35.10
2018-06-02T07:29:26.905Z,34.10
2018-06-02T07:31:53.752Z,36.60
2018-06-02T07:34:20.601Z,35.30
2018-06-02T07:36:47.447Z,35.70
2018-06-02T07:39:14.299Z,34.30
2018-06-02T07:41:41.250Z,34.40
2018-06-02T07:44:08.917Z,36.50
2018-06-02T07:46:35.764Z,35.80
2018-06-02T07:49:02.715Z,35.40
2018-06-02T07:51:29.667Z,35.50
2018-06-02T07:53:56.482Z,36.10
2018-06-02T07:56:23.364Z,36.60
2018-06-02T07:58:50.315Z,36.10
2018-06-02T08:01:17.169Z,37.40
2018-06-02T08:03:44.322Z,36.70
2018-06-02T08:06:11.373Z,35.70
2018-06-02T08:08:38.251Z,37.80
2018-06-02T08:11:06.194Z,39.50
2018-06-02T08:13:34.172Z,39.40
2018-06-02T08:16:03.002Z,38.40
2018-06-02T08:18:31.140Z,37.50
2018-06-02T08:20:58.139Z,36.70
2018-06-02T08:23:25.147Z,37.10
2018-06-02T08:25:52.097Z,38.10
2018-06-02T08:28:19.968Z,39.90
2018-06-02T08:30:47.332Z,39.90
2018-06-02T08:39:11.957Z,40.70
2018-06-02T08:41:41.340Z,40.20
2018-06-02T08:44:09.078Z,41.10
2018-06-02T08:46:36.589Z,42.00
2018-06-02T08:49:03.631Z,42.00
2018-06-02T08:51:30.578Z,40.80
2018-06-02T08:53:57.529Z,40.90
2018-06-02T08:56:24.485Z,42.10
2018-06-02T08:58:51.545Z,44.90
2018-06-02T09:01:21.865Z,48.60
2018-06-02T09:03:49.431Z,48.50
2018-06-02T09:06:16.381Z,47.80
2018-06-02T09:08:43.329Z,48.50
2018-06-02T09:11:10.484Z,50.10
2018-06-02T09:13:37.442Z,49.90
2018-06-02T09:16:04.488Z,49.90
2018-06-02T09:18:32.261Z,49.20
2018-06-02T09:21:06.376Z,49.20
2018-06-02T09:23:33.221Z,50.60
2018-06-02T09:26:00.583Z,49.80
2018-06-02T09:28:27.541Z,49.60
2018-06-02T09:30:54.595Z,50.10
2018-06-02T09:33:21.546Z,50.60
2018-06-02T09:35:48.405Z,51.30
2018-06-02T09:38:15.343Z,51.60
2018-06-02T09:40:42.189Z,52.80
2018-06-02T09:43:09.348Z,52.10
2018-06-02T09:45:36.189Z,51.90
2018-06-02T09:48:03.244Z,53.50
2018-06-02T09:50:30.092Z,55.20
2018-06-02T09:52:57.157Z,54.30
2018-06-02T09:55:24.826Z,52.90
2018-06-02T09:57:53.210Z,52.40
2018-06-02T10:00:22.107Z,52.40
2018-06-02T10:02:49.054Z,52.60
2018-06-02T10:05:16.205Z,52.40
2018-06-02T10:07:43.056Z,51.90
2018-06-02T10:10:10.108Z,51.80
2018-06-02T10:12:36.949Z,51.70
2018-06-02T10:15:03.912Z,50.70
2018-06-02T10:17:32.395Z,50.20
2018-06-02T10:19:59.961Z,50.20
2018-06-02T10:22:26.905Z,51.30
2018-06-02T10:24:54.061Z,52.60
2018-06-02T10:27:20.908Z,51.60
2018-06-02T10:29:47.710Z,50.60
2018-06-02T10:32:15.634Z,50.30
2018-06-02T10:34:42.580Z,50.20
2018-06-02T10:37:09.835Z,49.10
2018-06-02T10:39:36.827Z,49.60
2018-06-02T10:42:03.841Z,50.60
2018-06-02T10:44:30.742Z,50.30
2018-06-02T10:46:58.871Z,50.60
2018-06-02T10:49:25.838Z,50.60
2018-06-02T10:51:54.110Z,50.30
2018-06-02T10:54:22.395Z,50.10
2018-06-02T10:56:50.769Z,50.80
2018-06-02T10:59:17.624Z,50.80
2018-06-02T11:01:45.406Z,50.40
2018-06-02T11:04:13.055Z,52.00
2018-06-02T11:06:40.105Z,52.00
2018-06-02T11:09:07.590Z,51.00
2018-06-02T11:11:35.237Z,49.60
2018-06-02T11:14:02.289Z,49.60
2018-06-02T11:16:29.138Z,48.80
2018-06-02T11:18:56.091Z,47.50
2018-06-02T11:21:23.576Z,48.80
2018-06-02T11:23:50.603Z,49.60
2018-06-02T11:26:17.760Z,50.00
2018-06-02T11:28:45.328Z,53.50
2018-06-02T11:31:12.382Z,51.00
2018-06-02T11:33:39.634Z,49.80
2018-06-02T11:36:06.587Z,51.00
2018-06-02T11:38:33.444Z,49.80
2018-06-02T11:41:00.285Z,49.80
2018-06-02T11:43:27.135Z,50.00
2018-06-02T11:45:53.904Z,50.50
2018-06-02T11:48:20.830Z,50.70
2018-06-02T11:50:47.780Z,49.40
2018-06-02T11:53:14.631Z,49.60
2018-06-02T11:55:41.580Z,49.20
2018-06-02T11:58:08.430Z,49.00
2018-06-02T12:00:35.279Z,47.00
2018-06-02T12:03:02.333Z,49.30
2018-06-02T12:05:29.283Z,47.90
2018-06-02T12:07:57.054Z,48.30
2018-06-02T12:10:23.902Z,48.30
2018-06-02T12:12:51.064Z,48.10
2018-06-02T12:15:19.158Z,48.90
2018-06-02T12:17:46.906Z,49.90
2018-06-02T12:20:14.674Z,48.70
2018-06-02T12:22:41.527Z,48.60
2018-06-02T12:25:08.372Z,48.60
2018-06-02T12:27:35.219Z,48.90
2018-06-02T12:30:02.067Z,49.00
2018-06-02T12:32:29.023Z,48.90
2018-06-02T12:34:55.977Z,49.00
2018-06-02T12:37:22.818Z,49.70
2018-06-02T12:39:49.768Z,50.60
2018-06-02T12:42:16.621Z,49.90
2018-06-02T12:44:43.571Z,50.10
2018-06-02T12:47:10.523Z,49.50
2018-06-02T12:49:37.470Z,50.70
2018-06-02T12:52:04.335Z,50.80
2018-06-02T12:54:32.399Z,51.10
2018-06-02T12:56:59.653Z,51.00
2018-06-02T12:59:26.912Z,50.70
2018-06-02T13:01:53.767Z,51.00
2018-06-02T13:04:20.712Z,51.50
2018-06-02T13:06:47.664Z,51.40
2018-06-02T13:09:14.721Z,52.00
2018-06-02T13:11:41.565Z,51.70
2018-06-02T13:14:08.515Z,50.60
2018-06-02T13:16:35.465Z,49.70
2018-06-02T13:19:02.222Z,50.20
2018-06-02T13:21:29.165Z,50.70
2018-06-02T13:23:56.068Z,50.70
2018-06-02T13:26:23.885Z,51.70
2018-06-02T13:28:51.142Z,51.70
2018-06-02T13:31:18.096Z,51.90
2018-06-02T13:33:45.046Z,51.20
2018-06-02T13:36:11.999Z,50.40
2018-06-02T13:38:39.255Z,51.80
2018-06-02T13:41:06.207Z,51.00
2018-06-02T13:43:33.260Z,50.60
2018-06-02T13:46:00.109Z,51.40
2018-06-02T13:48:27.060Z,50.70
2018-06-02T13:50:54.009Z,50.80
2018-06-02T13:53:20.860Z,50.30
2018-06-02T13:55:47.708Z,50.60
2018-06-02T13:58:14.661Z,50.70
2018-06-02T14:00:41.504Z,50.50
2018-06-02T14:03:08.456Z,50.80
2018-06-02T14:05:35.407Z,50.70
2018-06-02T14:08:02.571Z,50.90
2018-06-02T14:10:29.415Z,50.30
2018-06-02T14:12:56.468Z,52.10
2018-06-02T14:15:23.227Z,52.80
2018-06-02T14:17:50.061Z,54.70
2018-06-02T14:20:17.013Z,55.80
2018-06-02T14:22:43.965Z,55.60
2018-06-02T14:25:10.915Z,56.10
2018-06-02T14:27:38.684Z,57.60
2018-06-02T14:30:05.634Z,57.60
2018-06-02T14:32:33.300Z,59.20
2018-06-02T14:35:00.460Z,59.20
2018-06-02T14:37:27.308Z,58.10
2018-06-02T14:39:54.257Z,58.50
2018-06-02T14:42:21.045Z,59.10
2018-06-02T14:44:47.954Z,59.90
2018-06-02T14:47:14.903Z,60.30
2018-06-02T14:49:41.859Z,61.80
2018-06-02T14:52:08.703Z,60.60
2018-06-02T14:54:35.560Z,60.90
2018-06-02T14:57:02.401Z,61.10
2018-06-02T14:59:29.354Z,59.70
2018-06-02T15:01:56.408Z,60.90
2018-06-02T15:04:23.361Z,60.50
2018-06-02T15:06:50.208Z,59.80
2018-06-02T15:09:17.158Z,59.70
2018-06-02T15:11:44.929Z,59.40
2018-06-02T15:14:11.880Z,59.20
2018-06-02T15:16:38.731Z,60.00
2018-06-02T15:19:05.678Z,59.80
2018-06-02T15:21:32.627Z,59.40
2018-06-02T15:23:59.375Z,59.70
2018-06-02T15:26:26.225Z,57.80
2018-06-02T15:28:53.175Z,58.50
2018-06-02T15:31:20.130Z,59.50
2018-06-02T15:33:46.975Z,58.40
2018-06-02T15:36:13.821Z,59.70
2018-06-02T15:38:40.776Z,59.40
2018-06-02T15:41:07.630Z,59.40
2018-06-02T15:43:34.677Z,59.30
2018-06-02T15:46:01.730Z,59.50
2018-06-02T15:48:28.886Z,59.60
2018-06-02T15:50:55.740Z,59.40
2018-06-02T15:53:22.791Z,59.40
2018-06-02T15:55:49.535Z,59.20
2018-06-02T15:58:16.489Z,59.80
2018-06-02T16:00:43.332Z,60.00
2018-06-02T16:03:10.187Z,59.80
2018-06-02T16:05:37.135Z,59.50
2018-06-02T16:08:03.984Z,59.90
2018-06-02T16:10:30.829Z,59.90
2018-06-02T16:12:57.781Z,59.70
2018-06-02T16:15:24.833Z,60.30
2018-06-02T16:17:51.683Z,60.50
2018-06-02T16:20:18.738Z,61.00
2018-06-02T16:22:45.686Z,61.50
2018-06-02T16:25:12.537Z,61.80
2018-06-02T16:27:39.595Z,62.50
2018-06-02T16:30:06.540Z,61.40
2018-06-02T16:32:34.079Z,61.90
2018-06-02T16:35:01.262Z,61.60
2018-06-02T16:37:28.627Z,61.10
2018-06-02T16:39:55.570Z,61.20
2018-06-02T16:42:22.329Z,61.40
2018-06-02T16:44:49.168Z,61.90
2018-06-02T16:47:16.137Z,61.40
2018-06-02T16:49:42.970Z,62.30
2018-06-02T16:52:10.635Z,62.50
2018-06-02T16:54:37.993Z,62.10
2018-06-02T16:57:04.845Z,62.80
2018-06-02T16:59:31.701Z,63.10
2018-06-02T17:01:58.854Z,63.00
2018-06-02T17:04:26.106Z,63.20
2018-06-02T17:06:52.958Z,63.80
2018-06-02T17:09:20.015Z,62.90
2018-06-02T17:11:48.378Z,62.90
2018-06-02T17:14:16.367Z,63.70
2018-06-02T17:16:43.624Z,63.70
2018-06-02T17:19:10.472Z,64.00
2018-06-02T17:21:37.733Z,63.70
2018-06-02T17:24:05.499Z,63.00
2018-06-02T17:26:32.867Z,63.40
2018-06-02T17:28:59.925Z,63.00
2018-06-02T17:31:27.687Z,63.50
2018-06-02T17:33:54.838Z,63.40
2018-06-02T17:36:28.748Z,63.90
2018-06-02T17:38:55.494Z,64.50
2018-06-02T17:41:22.322Z,63.70
2018-06-02T17:43:49.500Z,63.20
2018-06-02T17:46:16.553Z,64.20
2018-06-02T17:48:43.504Z,64.10
2018-06-02T17:51:10.360Z,64.80
2018-06-02T17:53:38.021Z,64.80
2018-06-02T17:56:04.971Z,64.80
2018-06-02T17:58:31.920Z,65.80
2018-06-02T18:00:58.768Z,65.30
2018-06-02T18:03:25.719Z,66.50
2018-06-02T18:05:52.522Z,66.80
2018-06-02T18:08:20.034Z,66.50
2018-06-02T18:10:46.882Z,66.40
2018-06-02T18:13:13.835Z,66.90
2018-06-02T18:15:41.608Z,66.80
2018-06-02T18:18:08.460Z,66.70
2018-06-02T18:20:35.403Z,67.80
2018-06-02T18:23:02.309Z,67.80
2018-06-02T18:25:29.403Z,68.30
2018-06-02T18:27:56.356Z,69.00
2018-06-02T18:30:23.307Z,69.00
2018-06-02T18:32:50.256Z,69.50
2018-06-02T18:35:17.209Z,70.30
2018-06-02T18:37:44.058Z,70.10
2018-06-02T18:40:11.270Z,70.60
2018-06-02T18:42:38.684Z,70.00
2018-06-02T18:45:05.499Z,70.60
2018-06-02T18:47:32.664Z,71.50
2018-06-02T18:49:59.834Z,71.70
2018-06-02T18:52:26.930Z,71.70
2018-06-02T18:54:54.045Z,72.30
2018-06-02T18:57:21.014Z,73.60
2018-06-02T18:59:47.849Z,73.80
2018-06-02T19:02:14.695Z,74.20
2018-06-02T19:04:41.651Z,74.00
2018-06-02T19:07:09.004Z,75.50
2018-06-02T19:09:35.853Z,75.80
2018-06-02T19:12:02.803Z,75.50
2018-06-02T19:14:29.758Z,75.20
2018-06-02T19:16:57.421Z,77.40
2018-06-02T19:19:24.270Z,77.30
2018-06-02T19:21:51.530Z,77.80
2018-06-02T19:24:18.274Z,77.70
2018-06-02T19:26:45.645Z,77.80
2018-06-02T19:29:12.483Z,78.30
2018-06-02T19:31:39.334Z,78.80
2018-06-02T19:34:06.121Z,78.80
2018-06-02T19:36:32.946Z,79.60
2018-06-02T19:38:59.827Z,80.20
2018-06-02T19:41:26.625Z,80.00
2018-06-02T19:43:53.476Z,81.10
2018-06-02T19:46:20.941Z,80.70
2018-06-02T19:48:47.996Z,80.30
2018-06-02T19:51:15.557Z,80.40
2018-06-02T19:53:42.710Z,80.30
2018-06-02T19:56:09.660Z,80.40
2018-06-02T19:58:36.619Z,81.00
2018-06-02T20:01:03.463Z,81.90
2018-06-02T20:03:30.415Z,82.60
2018-06-02T20:05:57.366Z,83.90
2018-06-02T20:08:24.316Z,84.30
2018-06-02T20:10:51.267Z,84.40
2018-06-02T20:13:18.114Z,83.90
2018-06-02T20:15:44.972Z,84.30
2018-06-02T20:18:11.915Z,85.10
2018-06-02T20:20:38.865Z,86.30
2018-06-02T20:23:05.715Z,89.10
2018-06-02T20:25:32.973Z,90.60
2018-06-02T20:28:00.330Z,91.80
2018-06-02T20:30:27.183Z,92.10
2018-06-02T20:32:54.031Z,93.40
2018-06-02T20:35:21.497Z,95.40
2018-06-02T20:37:48.218Z,98.00
2018-06-02T20:40:15.189Z,99.40
2018-06-02T20:42:42.139Z,99.90
2018-06-02T20:45:08.992Z,99.40
2018-06-02T20:47:35.947Z,99.90
2018-06-02T20:50:02.892Z,99.90
2018-06-02T20:52:30.256Z,99.90
2018-06-02T20:54:57.919Z,99.90
2018-06-02T20:57:24.769Z,99.90
2018-06-02T20:59:51.616Z,99.90
2018-06-02T21:02:20.116Z,99.90
2018-06-02T21:04:46.953Z,99.90
2018-06-02T21:07:13.798Z,99.90
2018-06-02T21:09:41.169Z,99.90
2018-06-02T21:12:08.319Z,99.90
2018-06-02T21:14:35.573Z,99.90
2018-06-02T21:17:02.637Z,99.90
2018-06-02T21:19:29.579Z,99.90
2018-06-02T21:21:56.482Z,99.90
2018-06-02T21:24:27.755Z,99.90
2018-06-02T21:26:59.755Z,99.90
2018-06-02T21:29:27.824Z,99.90
2018-06-02T21:31:55.590Z,99.90
2018-06-02T21:34:22.400Z,99.90
2018-06-02T21:36:50.105Z,99.90
2018-06-02T21:39:16.954Z,99.90
2018-06-02T21:41:44.212Z,99.90
2018-06-02T21:44:11.539Z,99.90
2018-06-02T21:46:38.527Z,99.90
2018-06-02T21:49:06.101Z,99.90
2018-06-02T21:51:32.937Z,99.90
2018-06-02T21:53:59.786Z,99.90
2018-06-02T21:56:29.018Z,99.90
2018-06-02T21:58:56.049Z,99.90
2018-06-02T22:01:25.120Z,99.90
2018-06-02T22:03:53.229Z,99.90
2018-06-02T22:06:20.176Z,99.90
2018-06-02T22:08:48.498Z,99.90
2018-06-02T22:11:15.609Z,99.90
2018-06-02T22:13:42.558Z,99.90
2018-06-02T22:16:09.369Z,99.90
2018-06-02T22:18:37.997Z,99.90
2018-06-02T22:21:04.845Z,99.90
2018-06-02T22:23:31.690Z,99.90
2018-06-02T22:25:58.438Z,99.90
2018-06-02T22:28:25.390Z,99.90
2018-06-02T22:30:52.145Z,99.90
2018-06-02T22:33:18.983Z,99.90
2018-06-02T22:35:45.831Z,99.90
2018-06-02T22:38:12.784Z,99.90
2018-06-02T22:40:39.549Z,99.90
2018-06-02T22:43:06.480Z,99.90
2018-06-02T22:45:33.431Z,99.90
2018-06-02T22:48:00.286Z,99.90
2018-06-02T22:50:27.130Z,99.90
2018-06-02T22:52:53.983Z,99.90
2018-06-02T22:55:20.831Z,99.90
2018-06-02T22:57:47.669Z,99.90
2018-06-02T23:00:17.355Z,99.90
2018-06-02T23:02:45.055Z,99.90
2018-06-02T23:05:12.109Z,99.90
2018-06-02T23:07:38.960Z,99.90
2018-06-02T23:10:05.807Z,99.90
2018-06-02T23:12:32.658Z,99.90
2018-06-02T23:14:59.503Z,99.90
2018-06-02T23:17:26.562Z,99.90
2018-06-02T23:19:53.407Z,99.90
2018-06-02T23:22:30.292Z,99.90
2018-06-02T23:24:57.234Z,99.90
2018-06-02T23:27:24.083Z,99.90
2018-06-02T23:29:50.934Z,99.90
2018-06-02T23:32:17.783Z,99.90
2018-06-02T23:34:44.630Z,99.90
2018-06-02T23:37:11.713Z,99.90
2018-06-02T23:39:40.167Z,99.90
2018-06-02T23:42:07.017Z,99.90
2018-06-02T23:44:33.971Z,99.90
2018-06-02T23:47:00.918Z,99.90
2018-06-02T23:49:27.671Z,99.90
2018-06-02T23:51:54.513Z,99.90
2018-06-02T23:54:21.467Z,99.90
2018-06-02T23:56:48.418Z,99.90
2018-06-02T23:59:15.264Z,99.90
